createdAt,value
2018-02-21T00:01:59.593Z,15.60
2018-02-21T00:04:25.423Z,15.71
2018-02-21T00:06:51.245Z,15.64
2018-02-21T00:09:17.066Z,15.65
2018-02-21T00:11:42.890Z,15.65
2018-02-21T00:14:08.773Z,15.48
2018-02-21T00:16:35.424Z,15.66
2018-02-21T00:19:01.250Z,15.62
2018-02-21T00:21:27.066Z,15.57
2018-02-21T00:23:52.936Z,15.72
2018-02-21T00:26:19.666Z,15.66
2018-02-21T00:28:45.479Z,15.66
2018-02-21T00:31:11.299Z,15.57
2018-02-21T00:33:37.123Z,15.69
2018-02-21T00:36:02.967Z,15.69
2018-02-21T00:38:28.797Z,15.61
2018-02-21T00:40:55.620Z,15.63
2018-02-21T00:43:21.442Z,15.64
2018-02-21T00:45:47.262Z,15.61
2018-02-21T00:48:13.088Z,15.60
2018-02-21T00:50:38.920Z,15.53
2018-02-21T00:53:04.761Z,15.64
2018-02-21T00:55:30.582Z,15.55
2018-02-21T00:57:56.445Z,15.46
2018-02-21T01:00:22.266Z,15.52
2018-02-21T01:02:48.123Z,15.51
2018-02-21T01:05:13.950Z,15.50
2018-02-21T01:07:39.810Z,15.47
2018-02-21T01:10:05.630Z,15.59
2018-02-21T01:12:31.535Z,15.59
2018-02-21T01:14:57.351Z,15.52
2018-02-21T01:17:23.173Z,15.52
2018-02-21T01:19:48.996Z,15.56
2018-02-21T01:22:14.809Z,15.76
2018-02-21T01:24:40.635Z,15.68
2018-02-21T01:27:07.331Z,15.66
2018-02-21T01:29:34.096Z,15.64
2018-02-21T01:31:59.916Z,15.60
2018-02-21T01:34:25.770Z,15.46
2018-02-21T01:36:52.425Z,15.58
2018-02-21T01:39:18.666Z,15.72
2018-02-21T01:41:44.489Z,15.66
2018-02-21T01:44:10.355Z,15.57
2018-02-21T01:46:36.234Z,15.60
2018-02-21T01:49:02.981Z,15.63
2018-02-21T01:51:29.629Z,15.71
2018-02-21T01:53:55.453Z,15.57
2018-02-21T01:56:22.303Z,15.59
2018-02-21T01:58:48.951Z,15.57
2018-02-21T02:01:14.797Z,15.70
2018-02-21T02:03:40.613Z,15.61
2018-02-21T02:06:07.423Z,15.57
2018-02-21T02:08:33.257Z,15.61
2018-02-21T02:10:59.125Z,15.64
2018-02-21T02:13:24.971Z,15.68
2018-02-21T02:15:50.825Z,15.55
2018-02-21T02:18:16.680Z,15.62
2018-02-21T02:20:42.531Z,15.45
2018-02-21T02:23:09.167Z,15.53
2018-02-21T02:25:35.021Z,15.57
2018-02-21T02:28:01.652Z,15.59
2018-02-21T02:30:27.511Z,15.49
2018-02-21T02:32:53.335Z,15.53
2018-02-21T02:35:19.222Z,15.57
2018-02-21T02:37:45.046Z,15.59
2018-02-21T02:40:10.944Z,15.57
2018-02-21T02:42:36.801Z,15.60
2018-02-21T02:45:02.625Z,15.50
2018-02-21T02:47:28.477Z,15.58
2018-02-21T02:49:54.307Z,15.51
2018-02-21T02:52:20.145Z,15.54
2018-02-21T02:54:45.970Z,15.47
2018-02-21T02:57:11.790Z,15.52
2018-02-21T02:59:37.611Z,15.56
2018-02-21T03:02:03.479Z,15.59
2018-02-21T03:04:29.300Z,15.60
2018-02-21T03:06:55.177Z,15.72
2018-02-21T03:09:21.002Z,15.73
2018-02-21T03:11:46.835Z,15.71
2018-02-21T03:14:12.658Z,15.63
2018-02-21T03:16:38.483Z,15.74
2018-02-21T03:19:04.326Z,15.60
2018-02-21T03:21:30.153Z,15.65
2018-02-21T03:23:55.972Z,15.52
2018-02-21T03:26:21.800Z,15.67
2018-02-21T03:28:47.626Z,15.52
2018-02-21T03:31:13.451Z,15.48
2018-02-21T03:33:39.279Z,15.44
2018-02-21T03:36:05.106Z,15.68
2018-02-21T03:38:30.923Z,15.55
2018-02-21T03:40:56.756Z,15.66
2018-02-21T03:43:22.573Z,15.64
2018-02-21T03:45:48.403Z,15.56
2018-02-21T03:48:14.227Z,15.51
2018-02-21T03:50:40.054Z,15.58
2018-02-21T03:53:05.872Z,15.55
2018-02-21T03:55:31.692Z,15.64
2018-02-21T03:57:57.517Z,15.53
2018-02-21T04:00:23.333Z,15.65
2018-02-21T04:02:49.159Z,15.48
2018-02-21T04:05:15.049Z,15.54
2018-02-21T04:07:40.873Z,15.43
2018-02-21T04:10:06.696Z,15.44
2018-02-21T04:12:32.562Z,15.55
2018-02-21T04:14:58.413Z,15.56
2018-02-21T04:17:24.271Z,15.51
2018-02-21T04:19:50.089Z,15.42
2018-02-21T04:22:15.951Z,15.45
2018-02-21T04:24:41.823Z,15.44
2018-02-21T04:27:07.635Z,15.46
2018-02-21T04:29:33.509Z,15.47
2018-02-21T04:31:59.333Z,15.51
2018-02-21T04:34:25.202Z,15.43
2018-02-21T04:36:51.026Z,15.34
2018-02-21T04:39:16.890Z,15.52
2018-02-21T04:41:42.737Z,15.56
2018-02-21T04:44:08.582Z,15.42
2018-02-21T04:46:34.430Z,15.40
2018-02-21T04:49:00.259Z,15.37
2018-02-21T04:51:26.117Z,15.39
2018-02-21T04:53:51.988Z,15.36
2018-02-21T04:59:25.935Z,15.28
2018-02-21T05:01:51.768Z,15.45
2018-02-21T05:04:17.630Z,15.51
2018-02-21T05:06:43.474Z,15.51
2018-02-21T05:09:09.296Z,15.47
2018-02-21T05:11:35.118Z,15.39
2018-02-21T05:14:00.972Z,15.44
2018-02-21T05:16:26.805Z,15.46
2018-02-21T05:18:52.672Z,15.46
2018-02-21T05:21:18.527Z,15.47
2018-02-21T05:23:44.542Z,15.53
2018-02-21T05:26:10.405Z,15.43
2018-02-21T05:28:36.266Z,15.44
2018-02-21T05:31:02.087Z,15.42
2018-02-21T05:33:27.954Z,15.42
2018-02-21T05:35:53.825Z,15.41
2018-02-21T05:38:19.678Z,15.43
2018-02-21T05:40:45.514Z,15.45
2018-02-21T05:43:11.372Z,15.43
2018-02-21T05:45:37.226Z,15.32
2018-02-21T05:48:03.070Z,15.43
2018-02-21T05:50:28.933Z,15.43
2018-02-21T05:52:54.761Z,15.46
2018-02-21T05:55:20.663Z,15.50
2018-02-21T05:57:46.508Z,15.39
2018-02-21T06:00:12.376Z,15.41
2018-02-21T06:02:38.197Z,15.39
2018-02-21T06:05:04.242Z,15.20
2018-02-21T06:07:30.064Z,15.30
2018-02-21T06:09:55.894Z,15.30
2018-02-21T06:12:21.719Z,15.39
2018-02-21T06:14:47.579Z,15.50
2018-02-21T06:17:13.411Z,15.47
2018-02-21T06:19:39.230Z,15.46
2018-02-21T06:22:05.927Z,15.56
2018-02-21T06:24:31.768Z,15.47
2018-02-21T06:26:57.607Z,15.43
2018-02-21T06:29:23.432Z,15.52
2018-02-21T06:31:49.292Z,15.48
2018-02-21T06:34:15.122Z,15.47
2018-02-21T06:36:40.965Z,15.53
2018-02-21T06:39:06.823Z,15.49
2018-02-21T06:41:32.637Z,15.45
2018-02-21T06:43:58.522Z,15.50
2018-02-21T06:46:24.355Z,15.49
2018-02-21T06:48:50.170Z,15.52
2018-02-21T06:51:19.465Z,15.52
2018-02-21T06:53:45.355Z,15.49
2018-02-21T06:56:11.175Z,15.14
2018-02-21T06:58:36.985Z,16.20
2018-02-21T07:01:02.790Z,16.10
2018-02-21T07:03:28.593Z,15.91
2018-02-21T07:05:54.414Z,15.88
2018-02-21T07:08:20.225Z,15.97
2018-02-21T07:10:46.036Z,15.79
2018-02-21T07:13:12.055Z,15.93
2018-02-21T07:15:37.929Z,16.01
2018-02-21T07:18:03.758Z,16.12
2018-02-21T07:20:29.624Z,16.10
2018-02-21T07:22:55.434Z,16.05
2018-02-21T07:25:21.292Z,15.98
2018-02-21T07:27:47.109Z,16.16
2018-02-21T07:30:12.929Z,16.04
2018-02-21T07:32:38.745Z,16.07
2018-02-21T07:35:04.552Z,16.14
2018-02-21T07:37:30.388Z,16.10
2018-02-21T07:39:56.190Z,16.12
2018-02-21T07:42:22.032Z,16.21
2018-02-21T07:44:47.837Z,16.15
2018-02-21T07:47:13.711Z,16.17
2018-02-21T07:49:39.517Z,16.13
2018-02-21T07:52:05.325Z,16.21
2018-02-21T07:54:31.125Z,16.21
2018-02-21T07:56:56.936Z,16.09
2018-02-21T07:59:22.742Z,16.22
2018-02-21T08:01:48.590Z,16.17
2018-02-21T08:04:14.391Z,16.23
2018-02-21T08:06:40.188Z,16.31
2018-02-21T08:09:05.989Z,16.13
2018-02-21T08:11:31.788Z,16.27
2018-02-21T08:13:57.595Z,16.22
2018-02-21T08:16:23.397Z,16.19
2018-02-21T08:18:49.209Z,16.38
2018-02-21T08:21:15.058Z,16.32
2018-02-21T08:23:40.861Z,16.31
2018-02-21T08:26:06.677Z,16.31
2018-02-21T08:28:32.477Z,16.37
2018-02-21T08:30:58.278Z,16.32
2018-02-21T08:33:24.081Z,16.29
2018-02-21T08:35:49.886Z,16.37
2018-02-21T08:38:15.719Z,16.33
2018-02-21T08:40:41.531Z,16.29
2018-02-21T08:43:07.398Z,16.31
2018-02-21T08:45:33.203Z,16.38
2018-02-21T08:47:59.072Z,16.18
2018-02-21T08:50:24.950Z,16.36
2018-02-21T08:52:50.753Z,16.37
2018-02-21T08:55:16.552Z,16.47
2018-02-21T08:57:42.365Z,16.54
2018-02-21T09:00:08.186Z,16.42
2018-02-21T09:02:34.034Z,16.46
2018-02-21T09:04:59.839Z,16.40
2018-02-21T09:07:25.646Z,16.36
2018-02-21T09:09:51.440Z,16.29
2018-02-21T09:12:17.342Z,16.35
2018-02-21T09:14:43.181Z,16.41
2018-02-21T09:17:08.989Z,16.38
2018-02-21T09:19:34.831Z,16.47
2018-02-21T09:22:01.469Z,16.38
2018-02-21T09:24:27.277Z,16.47
2018-02-21T09:26:53.084Z,16.28
2018-02-21T09:29:18.893Z,16.28
2018-02-21T09:31:44.706Z,16.22
2018-02-21T09:34:10.510Z,16.14
2018-02-21T09:36:36.314Z,16.36
2018-02-21T09:39:02.210Z,16.39
2018-02-21T09:41:28.023Z,16.43
2018-02-21T09:43:53.834Z,16.36
2018-02-21T09:46:19.679Z,16.38
2018-02-21T09:48:45.494Z,16.44
2018-02-21T09:51:11.297Z,16.48
2018-02-21T09:53:37.101Z,16.49
2018-02-21T09:56:02.906Z,16.35
2018-02-21T09:58:28.701Z,16.42
2018-02-21T10:00:54.515Z,16.42
2018-02-21T10:03:20.326Z,16.39
2018-02-21T10:05:46.130Z,16.43
2018-02-21T10:08:11.930Z,16.43
2018-02-21T10:10:37.770Z,16.50
2018-02-21T10:13:03.569Z,16.47
2018-02-21T10:15:29.413Z,16.45
2018-02-21T10:17:55.277Z,16.39
2018-02-21T10:20:21.132Z,16.37
2018-02-21T10:22:46.933Z,16.48
2018-02-21T10:25:12.774Z,16.49
2018-02-21T10:27:38.578Z,16.42
2018-02-21T10:30:04.439Z,16.41
2018-02-21T10:32:30.288Z,16.45
2018-02-21T10:34:56.216Z,16.45
2018-02-21T10:37:22.025Z,16.44
2018-02-21T10:39:47.866Z,16.53
2018-02-21T10:42:13.677Z,16.54
2018-02-21T10:44:39.486Z,16.54
2018-02-21T10:47:05.337Z,16.49
2018-02-21T10:49:31.146Z,16.53
2018-02-21T10:51:57.045Z,16.54
2018-02-21T10:54:22.842Z,16.53
2018-02-21T10:56:48.835Z,16.61
2018-02-21T10:59:14.637Z,16.56
2018-02-21T11:01:40.504Z,16.59
2018-02-21T11:04:06.313Z,16.60
2018-02-21T11:06:32.116Z,16.54
2018-02-21T11:08:57.917Z,16.56
2018-02-21T11:11:23.722Z,16.54
2018-02-21T11:13:49.527Z,16.55
2018-02-21T11:16:15.322Z,16.56
2018-02-21T11:18:41.121Z,16.56
2018-02-21T11:21:06.935Z,16.56
2018-02-21T11:23:32.802Z,16.52
2018-02-21T11:25:58.621Z,16.53
2018-02-21T11:28:24.426Z,16.49
2018-02-21T11:30:50.225Z,16.48
2018-02-21T11:33:16.029Z,16.56
2018-02-21T11:35:41.834Z,16.53
2018-02-21T11:38:07.647Z,16.58
2018-02-21T11:40:33.441Z,16.56
2018-02-21T11:42:59.250Z,16.51
2018-02-21T11:45:25.053Z,16.54
2018-02-21T11:47:50.862Z,16.62
2018-02-21T11:50:16.686Z,16.58
2018-02-21T11:52:42.521Z,16.66
2018-02-21T11:55:08.330Z,16.49
2018-02-21T11:57:34.134Z,16.54
2018-02-21T11:59:59.945Z,16.47
2018-02-21T12:02:25.758Z,16.51
2018-02-21T12:04:51.632Z,16.58
2018-02-21T12:07:17.402Z,16.63
2018-02-21T12:09:43.243Z,16.62
2018-02-21T12:12:09.110Z,16.62
2018-02-21T12:14:34.943Z,16.54
2018-02-21T12:17:00.760Z,16.61
2018-02-21T12:19:26.581Z,16.54
2018-02-21T12:21:52.381Z,16.55
2018-02-21T12:24:18.189Z,16.43
2018-02-21T12:26:44.039Z,16.52
2018-02-21T12:29:09.823Z,16.54
2018-02-21T12:31:35.650Z,16.49
2018-02-21T12:34:01.497Z,16.54
2018-02-21T12:36:27.292Z,16.54
2018-02-21T12:38:59.255Z,16.69
2018-02-21T12:41:31.305Z,16.58
2018-02-21T12:43:57.102Z,16.56
2018-02-21T12:46:22.909Z,16.54
2018-02-21T12:48:48.710Z,16.54
2018-02-21T12:51:14.555Z,16.63
2018-02-21T12:53:40.366Z,16.58
2018-02-21T12:56:06.166Z,16.70
2018-02-21T12:58:31.970Z,16.51
2018-02-21T13:00:57.812Z,16.54
2018-02-21T13:03:23.617Z,16.48
2018-02-21T13:05:49.490Z,16.40
2018-02-21T13:08:15.261Z,16.52
2018-02-21T13:10:41.061Z,16.58
2018-02-21T13:13:06.871Z,16.59
2018-02-21T13:15:32.670Z,16.59
2018-02-21T13:17:58.478Z,16.53
2018-02-21T13:20:24.281Z,16.58
2018-02-21T13:22:50.086Z,16.64
2018-02-21T13:25:15.894Z,16.56
2018-02-21T13:27:41.733Z,16.61
2018-02-21T13:30:07.546Z,16.56
2018-02-21T13:32:33.378Z,16.62
2018-02-21T13:34:59.226Z,16.61
2018-02-21T13:37:25.045Z,16.54
2018-02-21T13:39:50.890Z,16.55
2018-02-21T13:42:16.710Z,16.61
2018-02-21T13:44:42.520Z,16.59
2018-02-21T13:47:08.325Z,16.57
2018-02-21T13:49:34.126Z,16.59
2018-02-21T13:51:59.930Z,16.56
2018-02-21T13:54:25.738Z,16.45
2018-02-21T13:56:51.581Z,16.55
2018-02-21T13:59:17.386Z,16.53
2018-02-21T14:01:43.222Z,16.54
2018-02-21T14:04:09.062Z,16.67
2018-02-21T14:06:34.873Z,16.60
2018-02-21T14:09:00.709Z,16.57
2018-02-21T14:11:26.505Z,16.57
2018-02-21T14:13:52.350Z,16.51
2018-02-21T14:16:18.149Z,16.54
2018-02-21T14:18:44.002Z,16.56
2018-02-21T14:21:09.811Z,16.54
2018-02-21T14:23:35.616Z,16.40
2018-02-21T14:26:01.456Z,16.46
2018-02-21T14:28:27.262Z,16.49
2018-02-21T14:30:53.066Z,16.59
2018-02-21T14:33:18.886Z,16.62
2018-02-21T14:35:44.689Z,16.65
2018-02-21T14:38:10.493Z,16.69
2018-02-21T14:40:36.293Z,16.65
2018-02-21T14:43:02.097Z,16.60
2018-02-21T14:45:27.911Z,16.58
2018-02-21T14:47:53.718Z,16.56
2018-02-21T14:50:19.572Z,16.49
2018-02-21T14:52:45.382Z,16.57
2018-02-21T14:55:11.239Z,16.57
2018-02-21T14:57:37.045Z,16.59
2018-02-21T15:00:02.890Z,16.63
2018-02-21T15:02:28.708Z,16.61
2018-02-21T15:04:54.520Z,16.68
2018-02-21T15:07:20.381Z,16.70
2018-02-21T15:09:46.197Z,16.56
2018-02-21T15:12:12.014Z,16.49
2018-02-21T15:14:37.822Z,16.56
2018-02-21T15:17:04.180Z,16.65
2018-02-21T15:19:29.994Z,16.67
2018-02-21T15:21:55.806Z,16.77
2018-02-21T15:24:21.633Z,16.66
2018-02-21T15:26:47.445Z,16.63
2018-02-21T15:29:13.254Z,16.73
2018-02-21T15:31:39.255Z,16.67
2018-02-21T15:34:05.066Z,16.68
2018-02-21T15:36:30.934Z,16.66
2018-02-21T15:38:56.747Z,16.65
2018-02-21T15:41:22.582Z,16.62
2018-02-21T15:43:48.398Z,15.20
2018-02-21T15:46:14.209Z,15.37
2018-02-21T15:48:40.034Z,15.81
2018-02-21T15:51:05.841Z,16.20
2018-02-21T15:53:31.641Z,16.37
2018-02-21T15:55:57.447Z,16.44
2018-02-21T15:58:23.281Z,16.41
2018-02-21T16:00:49.091Z,16.53
2018-02-21T16:03:15.114Z,16.43
2018-02-21T16:05:40.921Z,16.50
2018-02-21T16:08:07.427Z,16.55
2018-02-21T16:10:33.253Z,16.53
2018-02-21T16:12:59.106Z,16.49
2018-02-21T16:15:24.981Z,16.44
2018-02-21T16:17:50.777Z,16.50
2018-02-21T16:20:16.578Z,16.52
2018-02-21T16:22:42.373Z,16.56
2018-02-21T16:25:08.378Z,16.64
2018-02-21T16:27:34.184Z,16.62
2018-02-21T16:29:59.995Z,16.59
2018-02-21T16:32:25.809Z,16.56
2018-02-21T16:34:51.610Z,16.59
2018-02-21T16:37:17.457Z,16.62
2018-02-21T16:39:43.262Z,16.56
2018-02-21T16:42:09.066Z,16.60
2018-02-21T16:44:34.882Z,16.55
2018-02-21T16:47:00.730Z,16.59
2018-02-21T16:49:26.554Z,16.56
2018-02-21T16:51:52.406Z,16.56
2018-02-21T16:54:21.350Z,16.55
2018-02-21T16:56:47.197Z,16.52
2018-02-21T16:59:13.002Z,16.54
2018-02-21T17:01:38.845Z,16.51
2018-02-21T17:04:04.647Z,16.56
2018-02-21T17:06:30.454Z,16.57
2018-02-21T17:08:56.259Z,16.42
2018-02-21T17:11:22.095Z,16.42
2018-02-21T17:13:47.936Z,16.48
2018-02-21T17:16:13.810Z,16.52
2018-02-21T17:18:39.619Z,16.49
2018-02-21T17:21:05.434Z,16.51
2018-02-21T17:23:31.292Z,16.38
2018-02-21T17:25:57.152Z,16.42
2018-02-21T17:28:22.975Z,16.47
2018-02-21T17:30:48.826Z,16.59
2018-02-21T17:33:14.641Z,16.50
2018-02-21T17:35:40.478Z,16.54
2018-02-21T17:38:06.286Z,16.50
2018-02-21T17:40:32.140Z,16.37
2018-02-21T17:42:57.970Z,16.44
2018-02-21T17:45:23.821Z,16.44
2018-02-21T17:47:49.637Z,16.47
2018-02-21T17:50:15.447Z,16.45
2018-02-21T17:52:41.310Z,16.39
2018-02-21T17:55:07.117Z,16.52
2018-02-21T17:57:33.038Z,16.57
2018-02-21T17:59:58.908Z,16.53
2018-02-21T18:02:24.869Z,16.45
2018-02-21T18:04:50.711Z,16.40
2018-02-21T18:07:16.582Z,16.41
2018-02-21T18:09:42.402Z,16.31
2018-02-21T18:12:08.225Z,16.21
2018-02-21T18:14:34.042Z,16.30
2018-02-21T18:16:59.864Z,16.27
2018-02-21T18:19:25.711Z,16.36
2018-02-21T18:21:51.529Z,16.35
2018-02-21T18:24:17.345Z,16.36
2018-02-21T18:26:43.197Z,16.27
2018-02-21T18:29:09.019Z,16.28
2018-02-21T18:31:34.826Z,16.23
2018-02-21T18:34:00.717Z,16.36
2018-02-21T18:36:26.638Z,16.31
2018-02-21T18:38:52.461Z,16.32
2018-02-21T18:41:18.292Z,16.32
2018-02-21T18:43:44.117Z,16.22
2018-02-21T18:46:09.935Z,16.27
2018-02-21T18:48:35.749Z,16.25
2018-02-21T18:51:01.574Z,16.31
2018-02-21T18:53:27.389Z,16.27
2018-02-21T18:55:53.202Z,16.41
2018-02-21T18:58:19.153Z,16.35
2018-02-21T19:00:45.060Z,16.46
2018-02-21T19:03:10.969Z,16.46
2018-02-21T19:05:36.820Z,16.56
2018-02-21T19:08:02.634Z,16.55
2018-02-21T19:10:28.498Z,16.55
2018-02-21T19:12:54.455Z,16.54
2018-02-21T19:15:20.486Z,16.57
2018-02-21T19:17:46.322Z,16.53
2018-02-21T19:20:12.229Z,16.56
2018-02-21T19:22:38.034Z,16.52
2018-02-21T19:25:03.965Z,16.47
2018-02-21T19:27:29.882Z,16.47
2018-02-21T19:29:55.729Z,16.48
2018-02-21T19:32:21.642Z,16.44
2018-02-21T19:34:47.640Z,16.35
2018-02-21T19:37:13.493Z,16.29
2018-02-21T19:39:39.386Z,16.39
2018-02-21T19:42:05.200Z,16.31
2018-02-21T19:44:31.017Z,16.38
2018-02-21T19:46:56.829Z,16.32
2018-02-21T19:49:22.646Z,16.40
2018-02-21T19:51:48.458Z,16.36
2018-02-21T19:54:14.265Z,16.32
2018-02-21T19:56:40.102Z,16.37
2018-02-21T19:59:05.909Z,16.49
2018-02-21T20:01:31.869Z,16.54
2018-02-21T20:03:57.715Z,16.47
2018-02-21T20:06:23.574Z,16.44
2018-02-21T20:08:49.378Z,16.42
2018-02-21T20:11:15.291Z,16.35
2018-02-21T20:13:41.149Z,16.40
2018-02-21T20:16:07.038Z,16.32
2018-02-21T20:18:32.890Z,16.41
2018-02-21T20:20:58.725Z,16.44
2018-02-21T20:23:24.599Z,16.33
2018-02-21T20:25:50.406Z,16.30
2018-02-21T20:28:16.258Z,16.27
2018-02-21T20:30:42.084Z,16.31
2018-02-21T20:33:07.935Z,16.23
2018-02-21T20:35:33.745Z,16.33
2018-02-21T20:37:59.549Z,16.26
2018-02-21T20:40:25.395Z,16.19
2018-02-21T20:42:51.250Z,16.17
2018-02-21T20:45:17.106Z,16.25
2018-02-21T20:47:42.909Z,16.21
2018-02-21T20:50:08.785Z,16.24
2018-02-21T20:52:34.593Z,16.29
2018-02-21T20:55:00.405Z,16.29
2018-02-21T20:57:26.341Z,16.37
2018-02-21T20:59:52.222Z,16.37
2018-02-21T21:02:18.832Z,16.34
2018-02-21T21:04:51.529Z,16.29
2018-02-21T21:07:22.042Z,16.32
2018-02-21T21:09:52.580Z,16.25
2018-02-21T21:12:18.739Z,16.20
2018-02-21T21:14:44.577Z,16.23
2018-02-21T21:17:10.386Z,16.18
2018-02-21T21:19:36.194Z,16.16
2018-02-21T21:22:02.039Z,16.16
2018-02-21T21:24:27.859Z,16.22
2018-02-21T21:26:53.702Z,16.24
2018-02-21T21:29:19.661Z,16.18
2018-02-21T21:31:45.542Z,16.27
2018-02-21T21:34:11.386Z,16.28
2018-02-21T21:36:37.234Z,16.37
2018-02-21T21:39:03.800Z,16.32
2018-02-21T21:41:29.634Z,16.40
2018-02-21T21:43:55.440Z,16.34
2018-02-21T21:46:21.378Z,16.30
2018-02-21T21:48:47.285Z,16.40
2018-02-21T21:51:13.239Z,16.38
2018-02-21T21:53:39.066Z,16.38
2018-02-21T21:56:05.185Z,16.45
2018-02-21T21:58:31.015Z,16.46
2018-02-21T22:00:57.074Z,16.39
2018-02-21T22:03:22.931Z,16.36
2018-02-21T22:05:48.762Z,16.45
2018-02-21T22:08:14.915Z,16.45
2018-02-21T22:10:40.730Z,16.41
2018-02-21T22:13:06.843Z,16.53
2018-02-21T22:15:32.682Z,16.44
2018-02-21T22:17:58.502Z,16.41
2018-02-21T22:20:24.702Z,16.36
2018-02-21T22:22:50.514Z,16.47
2018-02-21T22:25:16.516Z,16.41
2018-02-21T22:27:42.333Z,16.43
2018-02-21T22:30:08.329Z,16.48
2018-02-21T22:32:34.349Z,16.42
2018-02-21T22:35:00.212Z,16.48
2018-02-21T22:37:26.291Z,16.43
2018-02-21T22:39:52.114Z,16.46
2018-02-21T22:42:17.958Z,16.45
2018-02-21T22:44:43.902Z,16.47
2018-02-21T22:47:09.734Z,16.45
2018-02-21T22:49:35.925Z,16.47
2018-02-21T22:52:01.751Z,16.39
2018-02-21T22:54:27.797Z,16.42
2018-02-21T22:56:53.658Z,16.38
2018-02-21T22:59:19.473Z,16.38
2018-02-21T23:01:45.543Z,16.39
2018-02-21T23:04:11.365Z,16.38
2018-02-21T23:06:37.429Z,16.43
2018-02-21T23:09:03.268Z,16.43
2018-02-21T23:11:29.070Z,16.42
2018-02-21T23:13:55.118Z,16.35
2018-02-21T23:16:20.945Z,16.41
2018-02-21T23:18:47.048Z,16.40
2018-02-21T23:21:12.958Z,16.43
2018-02-21T23:23:38.878Z,16.46
2018-02-21T23:26:04.924Z,16.39
2018-02-21T23:28:30.754Z,16.36
2018-02-21T23:30:56.580Z,16.40
2018-02-21T23:33:22.380Z,16.35
2018-02-21T23:35:48.184Z,16.42
2018-02-21T23:38:13.983Z,16.26
2018-02-21T23:40:39.825Z,16.30
2018-02-21T23:43:05.634Z,16.34
2018-02-21T23:45:31.505Z,16.29
2018-02-21T23:47:57.309Z,16.34
2018-02-21T23:50:23.150Z,16.42
2018-02-21T23:52:48.958Z,16.43
2018-02-21T23:55:14.769Z,16.34
2018-02-21T23:57:40.581Z,16.38
